Time;durP1;ratioP1;P1;durP2;ratioP2;P2;SDS_P1;SDS_P2;PMS_P1;PMS_P2;Temp;Humidity;BMP_temperature;BMP_pressure;BME280_temperature;BME280_humidity;BME280_pressure;Samples;Min_cycle;Max_cycle;Signal;HPM_P1;HPM_P2
2022/10/18 00:00:02;;;;;;;0.00;0.00;;;9.60;99.90;;;;;;4956855;29;20099;-78
2022/10/18 00:02:31;;;;;;;0.10;0.10;;;9.70;99.90;;;;;;4956714;29;20026;-78
2022/10/18 00:05:22;;;;;;;0.10;0.10;;;9.70;99.90;;;;;;4955939;29;20027;-82
2022/10/18 00:07:54;;;;;;;0.00;0.00;;;7.30;99.90;;;;;;4954991;29;20039;-78
2022/10/18 00:10:28;;;;;;;0.00;0.00;;;12.20;99.90;;;;;;4925858;29;20100;-80
2022/10/18 00:12:54;;;;;;;0.00;0.00;;;9.50;99.90;;;;;;4956587;29;20028;-79
2022/10/18 00:15:20;;;;;;;0.00;0.00;;;10.20;99.90;;;;;;4956817;29;20030;-79
2022/10/18 00:17:46;;;;;;;0.03;0.03;;;9.40;99.90;;;;;;4956847;29;20072;-78
2022/10/18 00:20:12;;;;;;;0.00;0.00;;;9.10;99.90;;;;;;4955082;29;20036;-79
2022/10/18 00:22:51;;;;;;;0.10;0.10;;;9.30;99.90;;;;;;4954426;29;20031;-78
2022/10/18 00:25:18;;;;;;;1.73;1.65;;;9.30;99.90;;;;;;4955256;29;20143;-80
2022/10/18 00:27:43;;;;;;;9.30;8.50;;;9.30;99.90;;;;;;4938905;29;20040;-78
2022/10/18 00:30:15;;;;;;;0.00;0.00;;;9.20;99.90;;;;;;4939826;29;20035;-78
2022/10/18 00:32:42;;;;;;;0.00;0.00;;;9.20;99.90;;;;;;4955319;29;20517;-79
2022/10/18 00:35:11;;;;;;;0.00;0.00;;;9.10;99.90;;;;;;4954314;29;20024;-79
2022/10/18 00:37:36;;;;;;;0.00;0.00;;;9.20;99.90;;;;;;4956358;29;20035;-79
2022/10/18 00:40:03;;;;;;;0.10;0.10;;;9.20;99.90;;;;;;4976609;29;20079;-79
2022/10/18 00:42:35;;;;;;;0.10;0.10;;;7.30;99.90;;;;;;4976055;29;20023;-79
2022/10/18 00:45:23;;;;;;;0.00;0.00;;;9.20;99.90;;;;;;4976415;29;20046;-78
2022/10/18 00:48:05;;;;;;;0.10;0.10;;;9.20;99.90;;;;;;4976783;29;20047;-78
2022/10/18 00:50:33;;;;;;;0.55;0.55;;;9.10;99.90;;;;;;4975777;29;20039;-77
2022/10/18 00:53:21;;;;;;;0.00;0.00;;;9.20;99.90;;;;;;4977085;29;20030;-78
2022/10/18 00:55:47;;;;;;;6.65;6.40;;;9.20;99.90;;;;;;4975427;29;20563;-78
2022/10/18 00:58:19;;;;;;;0.00;0.00;;;9.10;99.90;;;;;;4975489;29;20016;-78
2022/10/18 01:00:45;;;;;;;0.00;0.00;;;;;;;;;;4973415;28;20058;-78
2022/10/18 01:03:15;;;;;;;0.20;0.20;;;9.00;99.90;;;;;;4960601;29;20549;-79
2022/10/18 01:05:46;;;;;;;0.00;0.00;;;9.00;99.90;;;;;;4976524;29;20023;-78
2022/10/18 01:08:27;;;;;;;0.10;0.10;;;9.00;99.90;;;;;;4958216;29;20103;-78
2022/10/18 01:11:34;;;;;;;0.00;0.00;;;9.00;99.90;;;;;;4974144;29;20325;-78
2022/10/18 01:14:49;;;;;;;0.00;0.00;;;9.00;99.90;;;;;;4970795;29;20019;-84
2022/10/18 01:17:26;;;;;;;0.10;0.10;;;9.00;99.90;;;;;;4909585;29;20059;-82
2022/10/18 01:20:05;;;;;;;0.00;0.00;;;9.10;99.90;;;;;;4893447;29;20323;-79
2022/10/18 01:22:45;;;;;;;8.32;8.02;;;9.00;99.90;;;;;;4915581;29;20519;-79
2022/10/18 01:25:44;;;;;;;0.00;0.00;;;8.90;99.90;;;;;;4918101;29;20158;-77
2022/10/18 01:28:31;;;;;;;0.00;0.00;;;7.80;99.90;;;;;;4901618;29;20084;-79
2022/10/18 01:31:13;;;;;;;0.00;0.00;;;8.90;99.90;;;;;;4917032;29;20051;-80
2022/10/18 01:33:39;;;;;;;0.00;0.00;;;;;;;;;;4918068;29;20104;-78
2022/10/18 01:36:37;;;;;;;0.00;0.00;;;8.90;99.90;;;;;;4916908;29;20031;-77
2022/10/18 01:39:18;;;;;;;0.10;0.10;;;8.90;99.90;;;;;;4841819;29;20038;-78
2022/10/18 01:41:45;;;;;;;0.10;0.10;;;8.80;99.90;;;;;;4842020;29;20039;-80
2022/10/18 01:44:16;;;;;;;0.10;0.10;;;8.80;99.90;;;;;;4843669;29;20039;-80
2022/10/18 01:46:44;;;;;;;0.00;0.00;;;8.80;99.90;;;;;;4842448;29;20074;-78
2022/10/18 01:49:11;;;;;;;0.08;0.08;;;;;;;;;;4826859;29;20047;-78
2022/10/18 01:51:36;;;;;;;0.00;0.00;;;8.80;99.90;;;;;;4842185;29;20023;-81
2022/10/18 01:54:02;;;;;;;0.00;0.00;;;8.70;99.90;;;;;;4873921;29;20032;-79
2022/10/18 01:56:48;;;;;;;0.30;0.30;;;8.70;99.90;;;;;;4864675;29;20129;-77
2022/10/18 01:59:20;;;;;;;0.05;0.05;;;8.60;99.90;;;;;;4864395;29;20025;-79
2022/10/18 02:02:31;;;;;;;2.60;2.50;;;8.60;99.90;;;;;;4879191;29;20029;-80
2022/10/18 02:05:14;;;;;;;0.00;0.00;;;8.50;99.90;;;;;;4809926;29;20058;-79
2022/10/18 02:08:01;;;;;;;0.00;0.00;;;8.50;99.90;;;;;;4827143;29;20047;-79
2022/10/18 02:11:18;;;;;;;0.30;0.30;;;8.50;99.90;;;;;;4825090;29;20042;-79
2022/10/18 02:13:58;;;;;;;0.03;0.03;;;8.50;99.90;;;;;;4824488;29;20041;-78
2022/10/18 02:16:54;;;;;;;0.03;0.03;;;8.60;99.90;;;;;;4859201;29;20038;-79
2022/10/18 02:19:49;;;;;;;0.25;0.25;;;8.40;99.90;;;;;;4849904;29;20049;-81
2022/10/18 02:22:16;;;;;;;0.10;0.10;;;8.40;99.90;;;;;;4985376;23;20106;-79
2022/10/18 02:24:46;;;;;;;0.00;0.00;;;8.40;99.90;;;;;;5014183;28;20267;-80
2022/10/18 02:27:12;;;;;;;0.00;0.00;;;8.40;99.90;;;;;;5012866;28;20093;-79
2022/10/18 02:29:52;;;;;;;0.00;0.00;;;8.40;99.90;;;;;;4996650;28;20038;-79
2022/10/18 02:32:45;;;;;;;0.00;0.00;;;8.40;99.90;;;;;;5010938;28;20272;-78
2022/10/18 02:35:23;;;;;;;0.00;0.00;;;8.40;99.90;;;;;;5012876;28;20026;-81
2022/10/18 02:37:55;;;;;;;0.00;0.00;;;8.30;99.90;;;;;;5012400;28;20022;-78
2022/10/18 02:40:54;;;;;;;1.38;1.38;;;8.30;99.90;;;;;;5013084;28;20026;-79
2022/10/18 02:43:29;;;;;;;24.90;22.80;;;8.30;99.90;;;;;;5013118;28;20015;-79
2022/10/18 02:46:15;;;;;;;0.00;0.00;;;8.30;99.90;;;;;;5006916;28;20011;-79
2022/10/18 02:48:49;;;;;;;0.00;0.00;;;8.20;99.90;;;;;;4995727;28;20022;-79
2022/10/18 02:51:17;;;;;;;0.00;0.00;;;8.20;99.90;;;;;;5008337;28;20046;-80
2022/10/18 02:53:43;;;;;;;0.00;0.00;;;8.20;99.90;;;;;;4996665;28;20026;-79
2022/10/18 02:56:15;;;;;;;0.00;0.00;;;8.10;99.90;;;;;;5012552;28;20078;-79
2022/10/18 02:58:46;;;;;;;0.00;0.00;;;8.10;99.90;;;;;;5011129;28;20026;-79
2022/10/18 03:01:13;;;;;;;0.03;0.03;;;8.10;99.90;;;;;;5011590;28;20007;-79
2022/10/18 03:03:39;;;;;;;0.00;0.00;;;8.00;99.90;;;;;;5012016;28;20033;-79
2022/10/18 03:06:05;;;;;;;0.00;0.00;;;8.00;99.90;;;;;;5012560;28;20022;-79
2022/10/18 03:08:31;;;;;;;0.03;0.03;;;8.00;99.90;;;;;;5011511;28;20038;-78
2022/10/18 03:10:57;;;;;;;0.00;0.00;;;8.00;99.90;;;;;;5012826;28;20070;-80
2022/10/18 03:13:23;;;;;;;1.45;1.42;;;8.00;99.90;;;;;;4995244;28;20034;-82
2022/10/18 03:15:49;;;;;;;0.00;0.00;;;8.00;99.90;;;;;;5012351;28;20046;-80
2022/10/18 03:18:15;;;;;;;0.00;0.00;;;7.90;99.90;;;;;;4994848;28;20070;-80
2022/10/18 03:20:40;;;;;;;0.10;0.10;;;7.90;99.90;;;;;;4993406;28;20033;-79
2022/10/18 03:23:17;;;;;;;0.00;0.00;;;7.90;99.90;;;;;;5011167;28;20054;-79
2022/10/18 03:26:03;;;;;;;0.00;0.00;;;7.90;99.90;;;;;;5012125;28;20026;-78
2022/10/18 03:28:29;;;;;;;0.00;0.00;;;7.90;99.90;;;;;;5012161;28;20017;-79
2022/10/18 03:31:15;;;;;;;0.00;0.00;;;7.90;99.90;;;;;;5011886;28;20033;-77
2022/10/18 03:33:41;;;;;;;0.00;0.00;;;7.80;99.90;;;;;;5011958;28;20064;-87
2022/10/18 03:36:08;;;;;;;0.10;0.10;;;7.80;99.90;;;;;;4993094;28;20064;-78
2022/10/18 03:38:43;;;;;;;0.00;0.00;;;7.70;99.90;;;;;;5009217;28;20057;-78
2022/10/18 03:41:09;;;;;;;0.00;0.00;;;7.70;99.90;;;;;;5005951;28;20028;-78
2022/10/18 03:43:58;;;;;;;0.00;0.00;;;7.70;99.90;;;;;;4984763;28;20033;-84
2022/10/18 03:46:26;;;;;;;0.10;0.10;;;7.60;99.90;;;;;;5002157;28;20116;-80
2022/10/18 03:48:52;;;;;;;0.00;0.00;;;;;;;;;;5003677;28;20039;-84
2022/10/18 03:51:18;;;;;;;0.10;0.10;;;7.50;99.90;;;;;;5008301;28;20078;-81
2022/10/18 03:53:44;;;;;;;0.00;0.00;;;;;;;;;;5010092;28;20019;-79
2022/10/18 03:56:18;;;;;;;0.00;0.00;;;7.50;99.90;;;;;;5000234;28;20094;-81
2022/10/18 03:58:44;;;;;;;0.10;0.10;;;7.50;99.90;;;;;;5002671;28;20428;-81
2022/10/18 04:01:11;;;;;;;0.10;0.10;;;7.50;99.90;;;;;;4989659;28;20034;-76
2022/10/18 04:03:36;;;;;;;0.10;0.10;;;7.50;99.90;;;;;;5011085;28;20026;-78
2022/10/18 04:06:08;;;;;;;0.00;0.00;;;7.50;99.90;;;;;;5012026;28;20031;-78
2022/10/18 04:08:34;;;;;;;0.00;0.00;;;7.50;99.90;;;;;;5011578;28;20010;-78
2022/10/18 04:11:10;;;;;;;0.00;0.00;;;7.50;99.90;;;;;;5011434;28;20289;-79
2022/10/18 04:13:37;;;;;;;0.00;0.00;;;7.50;99.90;;;;;;5010082;28;20053;-78
2022/10/18 04:16:06;;;;;;;0.00;0.00;;;7.10;99.90;;;;;;4995950;28;20022;-77
2022/10/18 04:18:31;;;;;;;0.00;0.00;;;7.50;99.90;;;;;;5013596;28;20033;-78
2022/10/18 04:20:59;;;;;;;0.00;0.00;;;7.50;99.90;;;;;;5012073;28;20050;-78
2022/10/18 04:23:31;;;;;;;0.00;0.00;;;7.50;99.90;;;;;;5012510;28;20014;-78
2022/10/18 04:25:57;;;;;;;0.00;0.00;;;7.50;99.90;;;;;;4990493;28;20074;-78
2022/10/18 04:28:24;;;;;;;0.00;0.00;;;7.40;99.90;;;;;;5011023;28;20099;-78
2022/10/18 04:31:13;;;;;;;0.10;0.10;;;7.40;99.90;;;;;;4995134;28;20018;-77
2022/10/18 04:33:44;;;;;;;0.10;0.10;;;7.40;99.90;;;;;;5009843;28;20065;-77
2022/10/18 04:36:10;;;;;;;0.00;0.00;;;7.40;99.90;;;;;;5014134;28;20018;-78
2022/10/18 04:38:39;;;;;;;0.10;0.10;;;7.40;99.90;;;;;;4998848;28;20066;-78
2022/10/18 04:41:05;;;;;;;2.47;2.38;;;7.30;99.90;;;;;;4996496;28;20029;-77
2022/10/18 04:43:33;;;;;;;0.00;0.00;;;;;;;;;;5014511;28;20421;-78
2022/10/18 04:46:01;;;;;;;0.00;0.00;;;7.30;99.90;;;;;;5017744;28;20082;-79
2022/10/18 04:48:26;;;;;;;0.00;0.00;;;7.30;99.90;;;;;;4983385;28;20030;-78
2022/10/18 04:50:52;;;;;;;0.10;0.10;;;7.30;99.90;;;;;;5015688;28;20450;-78
2022/10/18 04:53:27;;;;;;;0.00;0.00;;;7.30;99.90;;;;;;5016039;28;20018;-80
2022/10/18 04:55:53;;;;;;;0.00;0.00;;;7.20;99.90;;;;;;5016457;28;20073;-78
2022/10/18 04:58:42;;;;;;;0.00;0.00;;;7.20;99.90;;;;;;5017546;28;20026;-78
2022/10/18 05:01:29;;;;;;;0.10;0.10;;;7.20;99.90;;;;;;4957591;29;20113;-78
2022/10/18 05:03:54;;;;;;;0.00;0.00;;;;;;;;;;4949185;29;20085;-77
2022/10/18 05:06:25;;;;;;;0.00;0.00;;;7.10;99.90;;;;;;4951936;29;20124;-77
2022/10/18 05:08:55;;;;;;;0.00;0.00;;;7.00;99.90;;;;;;4975658;29;20008;-76
2022/10/18 05:11:21;;;;;;;0.00;0.00;;;7.10;99.90;;;;;;4976388;29;20074;-80
2022/10/18 05:13:46;;;;;;;0.00;0.00;;;7.10;99.90;;;;;;4974464;29;20079;-78
2022/10/18 05:16:12;;;;;;;0.00;0.00;;;7.00;99.90;;;;;;4959496;29;20110;-78
2022/10/18 05:18:38;;;;;;;0.00;0.00;;;7.00;99.90;;;;;;4982236;23;20031;-78
2022/10/18 05:21:20;;;;;;;0.10;0.10;;;7.00;99.90;;;;;;4992772;28;20038;-78
2022/10/18 05:23:46;;;;;;;0.10;0.10;;;7.00;99.90;;;;;;5008997;28;20023;-77
2022/10/18 05:26:13;;;;;;;0.00;0.00;;;;;;;;;;5011448;28;20037;-79
2022/10/18 05:28:41;;;;;;;1.23;1.13;;;7.00;99.90;;;;;;5014314;28;20030;-78
2022/10/18 05:31:10;;;;;;;0.00;0.00;;;7.10;99.90;;;;;;5012778;28;20049;-79
2022/10/18 05:33:36;;;;;;;0.00;0.00;;;7.00;99.90;;;;;;5014010;28;20011;-82
2022/10/18 05:36:18;;;;;;;0.00;0.00;;;7.00;99.90;;;;;;5007260;28;20240;-77
2022/10/18 05:38:44;;;;;;;0.00;0.00;;;7.10;99.90;;;;;;5012462;28;20046;-76
2022/10/18 05:41:11;;;;;;;0.00;0.00;;;7.10;99.90;;;;;;5015511;28;20022;-81
2022/10/18 05:43:41;;;;;;;0.00;0.00;;;7.00;99.90;;;;;;4998770;28;20085;-78
2022/10/18 05:46:11;;;;;;;0.00;0.00;;;7.10;99.90;;;;;;5014895;28;20052;-78
2022/10/18 05:48:37;;;;;;;0.00;0.00;;;;;;;;;;5013655;28;20034;-77
2022/10/18 05:51:20;;;;;;;0.00;0.00;;;7.20;99.90;;;;;;5015250;28;20030;-78
2022/10/18 05:53:46;;;;;;;0.10;0.10;;;7.40;99.90;;;;;;5014624;28;20027;-77
2022/10/18 05:56:22;;;;;;;0.00;0.00;;;7.30;99.90;;;;;;5013622;28;20022;-77
2022/10/18 05:59:19;;;;;;;0.10;0.10;;;7.40;99.90;;;;;;4967738;28;20007;-78
2022/10/18 06:01:46;;;;;;;0.00;0.00;;;7.40;99.90;;;;;;5010576;28;20010;-77
2022/10/18 06:04:12;;;;;;;0.00;0.00;;;7.40;99.90;;;;;;5004630;28;20169;-77
2022/10/18 06:06:38;;;;;;;0.05;0.05;;;7.40;99.90;;;;;;5004773;28;20022;-77
2022/10/18 06:11:49;;;;;;;0.57;0.57;;;;;;;;;;5015921;23;20062;-76
2022/10/18 06:14:20;;;;;;;0.00;0.00;;;7.50;99.90;;;;;;5012542;28;20095;-77
2022/10/18 06:16:46;;;;;;;0.00;0.00;;;7.60;99.90;;;;;;4996388;28;20027;-78
2022/10/18 06:19:11;;;;;;;0.10;0.10;;;7.60;99.90;;;;;;5011454;28;20022;-76
2022/10/18 06:21:37;;;;;;;0.00;0.00;;;7.60;99.90;;;;;;5013372;28;20037;-78
2022/10/18 06:24:08;;;;;;;0.00;0.00;;;7.70;99.90;;;;;;5013844;28;20023;-77
2022/10/18 06:26:37;;;;;;;0.00;0.00;;;7.70;99.90;;;;;;4997707;28;20037;-78
2022/10/18 06:29:06;;;;;;;0.03;0.03;;;7.80;99.90;;;;;;5011992;28;20017;-79
2022/10/18 06:31:55;;;;;;;0.00;0.00;;;7.90;99.90;;;;;;4994489;28;20057;-77
2022/10/18 06:34:21;;;;;;;0.10;0.10;;;8.00;99.90;;;;;;5008737;28;20090;-77
2022/10/18 06:36:47;;;;;;;0.10;0.10;;;8.10;99.90;;;;;;5011572;28;20034;-77
2022/10/18 06:39:39;;;;;;;0.00;0.00;;;8.20;99.90;;;;;;4995548;28;20054;-77
2022/10/18 06:42:16;;;;;;;0.10;0.10;;;8.30;99.90;;;;;;5012646;28;20050;-77
2022/10/18 06:44:43;;;;;;;0.10;0.10;;;8.40;99.90;;;;;;5013035;28;20037;-77
2022/10/18 06:47:09;;;;;;;0.00;0.00;;;8.50;99.90;;;;;;5010210;28;20022;-76
2022/10/18 06:49:34;;;;;;;0.00;0.00;;;8.60;99.90;;;;;;5011881;28;20655;-78
2022/10/18 06:52:06;;;;;;;0.15;0.15;;;8.70;99.90;;;;;;5009603;28;20037;-77
2022/10/18 06:54:36;;;;;;;0.57;0.57;;;8.80;99.90;;;;;;4997475;28;20030;-79
2022/10/18 06:57:03;;;;;;;0.20;0.20;;;8.90;99.90;;;;;;5013659;28;20037;-78
2022/10/18 06:59:33;;;;;;;0.93;0.88;;;9.10;99.90;;;;;;5014271;28;20007;-78
2022/10/18 07:02:40;;;;;;;0.10;0.10;;;9.10;99.90;;;;;;4996103;28;20006;-78
2022/10/18 07:05:09;;;;;;;0.10;0.10;;;9.10;99.90;;;;;;5013406;28;20045;-77
2022/10/18 07:07:34;;;;;;;7.68;7.28;;;9.30;99.90;;;;;;5007447;28;20513;-77
2022/10/18 07:10:00;;;;;;;0.10;0.10;;;9.10;99.90;;;;;;5007809;28;20010;-78
2022/10/18 07:12:26;;;;;;;1.10;1.10;;;9.50;99.90;;;;;;5011471;28;20026;-77
2022/10/18 07:14:51;;;;;;;0.10;0.10;;;9.70;99.90;;;;;;5014258;28;20046;-76
2022/10/18 07:17:22;;;;;;;0.05;0.05;;;9.90;99.90;;;;;;5010329;28;20069;-80
2022/10/18 07:19:52;;;;;;;0.10;0.10;;;10.00;99.90;;;;;;5008585;28;20236;-78
2022/10/18 07:22:18;;;;;;;0.10;0.10;;;10.10;99.90;;;;;;5010334;28;20031;-78
2022/10/18 07:24:47;;;;;;;0.05;0.05;;;10.30;99.90;;;;;;5012258;28;20013;-80
2022/10/18 07:27:20;;;;;;;0.00;0.00;;;10.20;99.90;;;;;;5021154;23;20034;-80
2022/10/18 07:29:48;;;;;;;0.10;0.10;;;10.40;99.90;;;;;;5014386;28;20039;-78
2022/10/18 07:32:33;;;;;;;0.10;0.10;;;10.60;99.90;;;;;;5012194;28;20030;-77
2022/10/18 07:35:00;;;;;;;0.08;0.08;;;10.80;99.90;;;;;;4993513;28;20014;-78
2022/10/18 07:37:42;;;;;;;0.30;0.30;;;11.00;99.90;;;;;;5012111;28;20034;-78
2022/10/18 07:40:10;;;;;;;0.10;0.10;;;11.10;99.90;;;;;;5015288;28;20014;-78
2022/10/18 07:42:36;;;;;;;2.20;2.17;;;11.40;99.90;;;;;;4998774;28;20010;-83
2022/10/18 07:45:03;;;;;;;0.82;0.80;;;11.50;99.90;;;;;;5011487;28;20070;-80
2022/10/18 07:47:36;;;;;;;0.30;0.30;;;11.60;99.90;;;;;;5011943;28;20074;-77
2022/10/18 07:50:06;;;;;;;0.45;0.45;;;11.80;99.90;;;;;;5008082;28;20273;-79
2022/10/18 07:52:40;;;;;;;1.58;1.50;;;11.90;99.90;;;;;;4999893;28;20050;-80
2022/10/18 07:55:06;;;;;;;0.10;0.10;;;12.00;99.90;;;;;;5008732;28;20245;-82
2022/10/18 07:57:33;;;;;;;0.30;0.30;;;12.20;99.90;;;;;;5000360;28;20086;-78
2022/10/18 07:59:59;;;;;;;3.70;3.50;;;12.30;99.90;;;;;;5006863;28;20221;-82
2022/10/18 08:02:24;;;;;;;0.25;0.25;;;12.50;99.90;;;;;;4989981;28;20433;-85
2022/10/18 08:04:50;;;;;;;6.13;5.50;;;12.40;99.90;;;;;;4982425;28;20030;-88
2022/10/18 08:07:16;;;;;;;2.65;2.55;;;12.50;99.90;;;;;;4982910;28;20097;-84
2022/10/18 08:09:42;;;;;;;1.48;1.42;;;12.60;99.90;;;;;;4982351;28;20050;-81
2022/10/18 08:12:08;;;;;;;2.38;2.17;;;12.90;99.90;;;;;;4984186;28;20038;-84
2022/10/18 08:14:33;;;;;;;4.18;3.95;;;12.90;99.90;;;;;;4983500;28;20301;-82
2022/10/18 08:16:59;;;;;;;0.60;0.60;;;13.00;99.90;;;;;;4983154;28;20037;-85
2022/10/18 08:19:25;;;;;;;3.15;3.05;;;13.20;99.90;;;;;;4983047;28;20033;-79
2022/10/18 08:21:50;;;;;;;0.68;0.68;;;13.40;99.90;;;;;;4983534;28;20309;-82
2022/10/18 08:24:16;;;;;;;6.28;2.20;;;13.60;99.90;;;;;;4983011;28;20453;-79
2022/10/18 08:26:42;;;;;;;0.20;0.20;;;13.90;99.90;;;;;;4964951;28;20410;-82
2022/10/18 08:29:09;;;;;;;0.20;0.20;;;13.80;99.90;;;;;;4980239;28;20042;-80
2022/10/18 08:31:35;;;;;;;0.20;0.20;;;14.00;99.90;;;;;;4982516;28;20046;-90
2022/10/18 08:34:01;;;;;;;0.10;0.10;;;14.10;99.90;;;;;;4983024;28;20022;-81
2022/10/18 08:36:26;;;;;;;0.17;0.17;;;14.20;99.90;;;;;;4984856;28;20044;-86
2022/10/18 08:38:52;;;;;;;1.50;1.50;;;14.50;99.90;;;;;;4982996;28;20450;-79
2022/10/18 08:41:18;;;;;;;0.75;0.75;;;;;;;;;;4982517;28;20080;-86
2022/10/18 08:44:18;;;;;;;2.08;1.98;;;14.70;99.90;;;;;;4982755;28;20034;-83
2022/10/18 08:46:49;;;;;;;0.32;0.32;;;14.70;99.90;;;;;;4983000;28;20097;-81
2022/10/18 08:49:45;;;;;;;0.10;0.10;;;14.90;99.90;;;;;;4965076;28;20176;-80
2022/10/18 08:52:23;;;;;;;0.80;0.80;;;15.10;99.90;;;;;;4886563;29;20037;-85
2022/10/18 08:55:19;;;;;;;0.17;0.17;;;15.20;99.90;;;;;;4903032;29;20103;-79
2022/10/18 08:57:48;;;;;;;2.42;2.30;;;18.10;99.90;;;;;;4901435;29;20662;-88
2022/10/18 09:00:22;;;;;;;0.10;0.10;;;14.30;99.90;;;;;;4887637;29;20047;-81
2022/10/18 09:03:03;;;;;;;0.10;0.10;;;15.40;99.90;;;;;;4888221;29;20032;-85
2022/10/18 09:05:32;;;;;;;0.20;0.20;;;15.60;99.90;;;;;;4908492;29;20024;-88
2022/10/18 09:08:21;;;;;;;0.40;0.40;;;15.60;99.90;;;;;;4902876;29;20063;-89
2022/10/18 09:10:56;;;;;;;0.50;0.50;;;15.80;99.90;;;;;;4902431;29;20550;-80
2022/10/18 09:13:55;;;;;;;0.38;0.38;;;16.10;99.90;;;;;;4903523;29;20123;-81
2022/10/18 09:16:46;;;;;;;0.50;0.50;;;16.20;99.90;;;;;;4906063;29;20068;-89
2022/10/18 09:19:38;;;;;;;3.33;3.13;;;16.40;99.90;;;;;;4903733;29;20530;-85
2022/10/18 09:22:16;;;;;;;0.50;0.50;;;16.50;99.90;;;;;;4902861;29;20323;-86
2022/10/18 09:24:57;;;;;;;0.38;0.38;;;16.60;99.90;;;;;;4904483;29;20051;-81
2022/10/18 09:27:37;;;;;;;0.30;0.30;;;16.70;99.60;;;;;;4902895;29;20342;-83
2022/10/18 09:30:20;;;;;;;0.20;0.20;;;16.90;99.50;;;;;;4977455;28;20042;-82
2022/10/18 09:33:04;;;;;;;0.40;0.40;;;17.10;99.10;;;;;;4982384;28;20019;-80
2022/10/18 09:35:39;;;;;;;2.35;2.22;;;17.10;98.40;;;;;;4984119;28;20022;-80
2022/10/18 09:38:10;;;;;;;0.63;0.63;;;17.30;98.40;;;;;;4983313;28;20014;-86
2022/10/18 09:40:45;;;;;;;0.38;0.38;;;17.30;99.50;;;;;;4983246;28;20054;-85
2022/10/18 09:43:17;;;;;;;1.60;1.50;;;17.40;98.90;;;;;;4983446;28;20025;-82
2022/10/18 09:45:46;;;;;;;0.10;0.10;;;17.50;98.00;;;;;;4982118;28;20102;-82
2022/10/18 09:48:27;;;;;;;0.28;0.28;;;17.50;97.30;;;;;;4984943;28;20097;-85
2022/10/18 09:51:16;;;;;;;0.38;0.38;;;17.50;98.50;;;;;;4988574;28;20038;-86
2022/10/18 09:53:54;;;;;;;1.75;1.65;;;17.60;96.60;;;;;;4972147;28;20025;-84
2022/10/18 09:56:53;;;;;;;0.73;0.73;;;17.80;96.50;;;;;;4990445;28;20053;-81
2022/10/18 09:59:46;;;;;;;1.33;1.23;;;17.80;96.00;;;;;;4929318;29;20467;-84
2022/10/18 10:02:14;;;;;;;2.70;2.50;;;17.70;96.50;;;;;;4911691;29;20041;-83
2022/10/18 10:04:40;;;;;;;0.10;0.10;;;15.00;95.90;;;;;;4927580;29;20043;-82
2022/10/18 10:07:18;;;;;;;0.28;0.28;;;18.00;97.00;;;;;;4926903;29;20036;-88
2022/10/18 10:09:57;;;;;;;0.50;0.50;;;18.20;95.90;;;;;;4927000;29;20042;-82
2022/10/18 10:12:25;;;;;;;0.20;0.20;;;18.50;95.80;;;;;;4923748;29;20212;-82
2022/10/18 10:14:51;;;;;;;0.10;0.10;;;18.50;95.80;;;;;;4923598;29;20122;-88
2022/10/18 10:17:28;;;;;;;1.00;0.98;;;18.80;94.60;;;;;;4924479;29;20632;-84
2022/10/18 10:20:02;;;;;;;1.05;0.95;;;18.80;94.80;;;;;;4908300;29;20027;-82
2022/10/18 10:22:48;;;;;;;1.17;1.10;;;19.00;94.40;;;;;;4925665;29;20047;-86
2022/10/18 10:25:24;;;;;;;0.10;0.10;;;19.10;94.20;;;;;;4908619;29;20689;-84
2022/10/18 10:27:50;;;;;;;0.22;0.22;;;20.60;93.80;;;;;;4929127;29;20048;-85
2022/10/18 10:30:26;;;;;;;0.75;0.75;;;19.30;93.60;;;;;;4929079;29;20179;-81
2022/10/18 10:48:16;;;;;;;2.53;1.85;;;20.50;89.50;;;;;;5071398;23;20533;-82
2022/10/18 10:50:52;;;;;;;0.52;0.52;;;20.50;89.20;;;;;;4964042;28;20667;-79
2022/10/18 10:53:49;;;;;;;0.50;0.50;;;20.50;87.30;;;;;;4980795;28;20176;-86
2022/10/18 10:56:22;;;;;;;0.10;0.10;;;20.60;86.40;;;;;;4981753;28;20080;-78
2022/10/18 10:58:49;;;;;;;0.10;0.10;;;20.90;88.50;;;;;;4982849;28;20291;-85
2022/10/18 11:01:36;;;;;;;0.20;0.20;;;21.20;85.10;;;;;;4980247;28;20045;-85
2022/10/18 11:04:28;;;;;;;0.10;0.10;;;21.10;82.80;;;;;;4981604;28;20014;-86
2022/10/18 11:07:11;;;;;;;0.10;0.10;;;21.20;83.20;;;;;;4983705;28;20093;-81
2022/10/18 11:09:57;;;;;;;0.52;0.52;;;21.30;82.40;;;;;;4982265;28;20037;-85
2022/10/18 11:12:22;;;;;;;0.28;0.28;;;21.40;82.00;;;;;;4981176;28;20019;-87
2022/10/18 11:15:31;;;;;;;3.72;3.63;;;21.60;81.30;;;;;;4978897;28;20093;-84
2022/10/18 11:18:20;;;;;;;1.38;1.30;;;21.90;80.20;;;;;;4919409;29;20134;-87
2022/10/18 11:20:55;;;;;;;0.10;0.10;;;22.00;79.50;;;;;;4918941;29;20251;-83
2022/10/18 11:23:29;;;;;;;0.68;0.68;;;22.00;79.30;;;;;;4919556;29;20036;-85
2022/10/18 11:26:09;;;;;;;0.10;0.10;;;22.30;78.50;;;;;;4917312;29;20111;-90
2022/10/18 11:28:35;;;;;;;4.95;3.50;;;22.30;78.30;;;;;;4900201;29;20044;-81
2022/10/18 11:31:09;;;;;;;0.20;0.20;;;22.40;77.00;;;;;;4900106;29;20047;-85
2022/10/18 11:34:02;;;;;;;1.27;1.02;;;22.60;78.00;;;;;;4900605;29;20303;-88
2022/10/18 11:36:42;;;;;;;0.10;0.10;;;22.90;74.40;;;;;;4900178;29;20113;-82
2022/10/18 11:39:19;;;;;;;1.20;1.10;;;22.90;75.20;;;;;;4901577;29;20409;-79
2022/10/18 11:42:02;;;;;;;0.10;0.10;;;22.90;74.00;;;;;;4899985;29;20048;-84
2022/10/18 11:45:00;;;;;;;0.75;0.75;;;23.00;76.20;;;;;;4899680;29;20047;-84
2022/10/18 11:47:47;;;;;;;2.47;2.38;;;23.30;74.40;;;;;;4899558;29;20044;-87
2022/10/18 11:50:41;;;;;;;0.30;0.30;;;22.30;73.40;;;;;;4899375;29;20056;-83
2022/10/18 11:53:35;;;;;;;0.10;0.10;;;23.30;73.80;;;;;;4902102;29;20573;-81
2022/10/18 11:56:28;;;;;;;2.53;1.85;;;23.30;73.80;;;;;;4944046;28;20023;-82
2022/10/18 11:59:10;;;;;;;0.55;0.43;;;23.50;73.10;;;;;;4960465;28;20097;-80
2022/10/18 12:01:48;;;;;;;0.10;0.10;;;24.80;72.90;;;;;;4960456;28;20114;-83
2022/10/18 12:04:22;;;;;;;0.10;0.10;;;24.00;71.90;;;;;;4959194;28;20022;-81
2022/10/18 12:06:51;;;;;;;2.60;2.45;;;24.10;70.20;;;;;;4959183;28;20106;-80
2022/10/18 12:09:28;;;;;;;1.52;0.98;;;24.30;69.70;;;;;;4959642;28;20325;-81
2022/10/18 12:12:13;;;;;;;0.10;0.10;;;24.40;69.80;;;;;;4960707;28;20411;-77
2022/10/18 12:14:48;;;;;;;1.95;1.85;;;24.60;68.80;;;;;;4961101;28;20530;-77
2022/10/18 12:17:37;;;;;;;0.80;0.80;;;24.60;67.10;;;;;;4960919;28;20030;-79
2022/10/18 12:20:21;;;;;;;0.57;0.57;;;24.70;66.40;;;;;;4960873;28;20043;-84
2022/10/18 12:23:00;;;;;;;1.13;1.10;;;24.90;66.20;;;;;;4961803;28;20031;-86
2022/10/18 12:25:27;;;;;;;0.10;0.10;;;25.30;65.00;;;;;;4962394;28;20023;-86
2022/10/18 12:28:29;;;;;;;1.52;1.40;;;25.20;65.50;;;;;;4943560;28;20042;-84
2022/10/18 12:31:19;;;;;;;0.10;0.10;;;25.60;64.20;;;;;;4961746;28;20699;-83
2022/10/18 12:33:50;;;;;;;0.10;0.10;;;25.60;63.40;;;;;;4944848;28;20041;-82
2022/10/18 12:36:51;;;;;;;0.13;0.13;;;25.60;61.70;;;;;;4961561;28;20031;-82
2022/10/18 12:39:39;;;;;;;2.90;1.77;;;26.10;59.40;;;;;;4959814;28;20037;-80
2022/10/18 12:42:05;;;;;;;0.52;0.43;;;;;;;;;;4949714;28;20054;-87
2022/10/18 12:44:33;;;;;;;1.00;0.47;;;25.90;58.20;;;;;;4961567;28;20030;-86
2022/10/18 12:47:02;;;;;;;0.52;0.30;;;26.10;59.50;;;;;;4960954;28;20060;-84
2022/10/18 12:49:38;;;;;;;0.10;0.10;;;26.10;60.00;;;;;;4961293;28;20050;-83
2022/10/18 12:52:20;;;;;;;0.55;0.55;;;26.10;60.40;;;;;;4962488;28;20046;-90
2022/10/18 12:55:07;;;;;;;0.70;0.65;;;25.90;61.20;;;;;;4960730;28;20031;-81
2022/10/18 12:57:51;;;;;;;0.25;0.25;;;25.80;61.80;;;;;;4965620;28;20031;-87
2022/10/18 13:00:28;;;;;;;1.63;1.30;;;26.10;61.40;;;;;;4967150;28;20019;-86
2022/10/18 13:03:12;;;;;;;0.20;0.20;;;26.20;59.10;;;;;;4966561;28;20037;-88
2022/10/18 13:05:57;;;;;;;0.10;0.10;;;26.20;60.30;;;;;;4967867;28;20026;-82
2022/10/18 13:08:26;;;;;;;0.20;0.20;;;26.40;60.00;;;;;;4964029;28;20287;-81
2022/10/18 13:11:01;;;;;;;0.10;0.10;;;26.40;59.70;;;;;;4962813;28;20114;-79
2022/10/18 13:13:42;;;;;;;0.35;0.35;;;26.40;59.00;;;;;;4962604;28;20023;-77
2022/10/18 13:16:28;;;;;;;0.43;0.43;;;26.60;59.10;;;;;;4961889;28;20383;-85
2022/10/18 13:18:59;;;;;;;1.08;1.00;;;27.20;58.80;;;;;;4883116;29;20045;-78
2022/10/18 13:34:49;;;;;;;0.40;0.40;;;;;;;;;;5301450;23;20057;-80
2022/10/18 13:37:15;;;;;;;0.13;0.13;;;27.70;56.30;;;;;;4982463;28;20038;-83
2022/10/18 13:39:41;;;;;;;1.10;0.88;;;27.90;57.90;;;;;;4982041;28;20022;-81
2022/10/18 13:42:30;;;;;;;1.35;1.25;;;28.00;57.00;;;;;;4980581;28;20521;-88
2022/10/18 13:45:31;;;;;;;0.08;0.08;;;28.10;56.60;;;;;;4964631;28;20053;-82
2022/10/18 13:48:28;;;;;;;1.02;0.65;;;28.20;56.10;;;;;;4980887;28;20030;-84
2022/10/18 13:51:10;;;;;;;0.82;0.65;;;28.40;55.60;;;;;;4981744;28;20139;-82
2022/10/18 13:53:58;;;;;;;0.10;0.10;;;28.80;55.80;;;;;;4984684;28;20665;-79
2022/10/18 13:56:49;;;;;;;1.02;0.85;;;27.00;54.70;;;;;;4988475;28;20030;-83
2022/10/18 13:59:15;;;;;;;0.20;0.20;;;29.30;55.50;;;;;;4988964;28;20077;-80
2022/10/18 14:02:38;;;;;;;0.17;0.17;;;29.60;55.30;;;;;;4989893;28;20497;-79
2022/10/18 14:05:41;;;;;;;0.55;0.40;;;29.90;54.80;;;;;;4925342;29;20046;-78
2022/10/18 14:08:20;;;;;;;0.55;0.28;;;30.10;54.10;;;;;;4924396;29;20031;-87